Time;durP1;ratioP1;P1;durP2;ratioP2;P2;SDS_P1;SDS_P2;PMS_P1;PMS_P2;Temp;Humidity;BMP_temperature;BMP_pressure;BME280_temperature;BME280_humidity;BME280_pressure;Samples;Min_cycle;Max_cycle;Signal;HPM_P1;HPM_P2
2023/03/09 00:00:59;;;;;;;0.30;0.30;;;;;;;1.86;100.00;97625.13;7398760;19;20346;-63
2023/03/09 00:03:25;;;;;;;2.60;1.05;;;;;;;1.85;100.00;97628.31;7398844;19;20348;-63
2023/03/09 00:05:59;;;;;;;1.10;1.10;;;;;;;1.54;100.00;97636.97;7402004;19;20011;-63
2023/03/09 00:08:27;;;;;;;0.60;0.60;;;;;;;1.44;100.00;97628.06;7397900;19;20007;-63
2023/03/09 00:10:54;;;;;;;2.83;0.77;;;;;;;1.42;100.00;97633.25;7400262;19;20011;-62
2023/03/09 00:13:21;;;;;;;0.55;0.55;;;;;;;1.32;100.00;97637.25;7398931;19;20018;-62
2023/03/09 00:15:50;;;;;;;5.05;1.88;;;;;;;1.39;100.00;97642.41;7397993;19;20018;-63
2023/03/09 00:18:20;;;;;;;2.85;1.70;;;;;;;1.41;100.00;97650.91;7396663;19;20006;-63
2023/03/09 00:20:47;;;;;;;1.75;0.90;;;;;;;1.42;100.00;97652.44;7395637;19;20026;-62
2023/03/09 00:23:17;;;;;;;3.38;1.38;;;;;;;1.42;100.00;97646.97;7397304;19;20007;-62
2023/03/09 00:25:45;;;;;;;4.25;0.93;;;;;;;1.43;100.00;97659.44;7398376;19;20021;-62
2023/03/09 00:28:11;;;;;;;4.05;1.13;;;;;;;1.43;100.00;97666.91;7399217;19;20014;-63
2023/03/09 00:30:38;;;;;;;0.85;0.85;;;;;;;1.41;100.00;97678.34;7396497;19;20022;-63
2023/03/09 00:33:04;;;;;;;0.90;0.90;;;;;;;1.48;100.00;97680.75;7397822;19;20018;-62
2023/03/09 00:35:30;;;;;;;1.13;1.02;;;;;;;1.44;100.00;97676.66;7396004;19;20010;-62
2023/03/09 00:37:56;;;;;;;5.85;1.02;;;;;;;1.47;100.00;97689.44;7395133;19;20007;-63
2023/03/09 00:40:22;;;;;;;1.30;0.90;;;;;;;1.43;100.00;97686.84;7395483;19;20018;-63
2023/03/09 00:42:49;;;;;;;1.05;1.05;;;;;;;1.41;100.00;97686.56;7395408;19;20021;-63
2023/03/09 00:45:15;;;;;;;3.45;1.02;;;;;;;1.41;100.00;97683.81;7396953;19;20021;-62
2023/03/09 00:47:41;;;;;;;3.60;1.27;;;;;;;1.41;100.00;97677.56;7394692;19;20018;-62
2023/03/09 00:50:09;;;;;;;2.95;0.70;;;;;;;1.41;100.00;97683.81;7397045;19;20014;-63
2023/03/09 00:52:36;;;;;;;0.45;0.45;;;;;;;1.41;100.00;97694.78;7397692;19;20014;-63
2023/03/09 00:55:02;;;;;;;1.23;1.10;;;;;;;1.38;100.00;97687.50;7396402;19;20832;-62
2023/03/09 00:57:30;;;;;;;1.08;1.08;;;;;;;1.39;100.00;97701.97;7396315;19;20010;-63
2023/03/09 00:59:57;;;;;;;3.08;0.77;;;;;;;1.37;100.00;97699.69;7394315;19;20023;-63
2023/03/09 01:02:24;;;;;;;0.38;0.38;;;;;;;1.38;100.00;97706.72;7398753;19;20014;-63
2023/03/09 01:04:50;;;;;;;1.55;1.10;;;;;;;1.37;100.00;97713.41;7396280;19;20021;-63
2023/03/09 01:07:17;;;;;;;0.47;0.47;;;;;;;1.42;100.00;97707.28;7394877;19;20015;-63
2023/03/09 01:09:43;;;;;;;5.38;2.20;;;;;;;1.47;100.00;97705.91;7396276;19;20015;-63
2023/03/09 01:12:10;;;;;;;2.83;1.27;;;;;;;1.54;100.00;97698.06;7399128;19;20014;-63
2023/03/09 01:14:36;;;;;;;0.57;0.32;;;;;;;1.55;100.00;97698.81;7397736;19;20013;-63
2023/03/09 01:17:02;;;;;;;0.40;0.40;;;;;;;1.51;100.00;97699.00;7396106;19;20014;-63
2023/03/09 01:19:29;;;;;;;5.00;2.42;;;;;;;1.53;100.00;97707.53;7393343;19;20023;-63
2023/03/09 01:21:55;;;;;;;1.67;1.55;;;;;;;1.53;100.00;97707.53;7398797;19;20373;-63
2023/03/09 01:24:22;;;;;;;1.02;0.93;;;;;;;1.53;100.00;97706.75;7394695;19;20507;-64
2023/03/09 01:26:48;;;;;;;1.50;1.50;;;;;;;1.49;100.00;97706.91;7395912;19;20011;-62
2023/03/09 01:29:15;;;;;;;0.80;0.80;;;;;;;1.48;100.00;97699.16;7397794;19;20021;-62
2023/03/09 01:31:41;;;;;;;2.78;0.85;;;;;;;1.49;100.00;97708.94;7396631;19;20010;-63
2023/03/09 01:34:11;;;;;;;0.68;0.52;;;;;;;5.59;100.00;97695.81;7394959;19;20014;-64
2023/03/09 01:36:39;;;;;;;4.50;1.55;;;;;;;6.49;100.00;97700.44;7395436;19;20030;-63
2023/03/09 01:39:05;;;;;;;1.38;1.27;;;;;;;7.19;100.00;97698.19;7392814;19;20645;-62
2023/03/09 01:41:31;;;;;;;5.32;1.48;;;;;;;7.42;100.00;97698.91;7396007;19;20035;-62
2023/03/09 01:43:58;;;;;;;1.10;1.02;;;;;;;6.78;100.00;97691.66;7394672;19;20125;-63
2023/03/09 01:46:34;;;;;;;7.10;1.23;;;;;;;5.79;100.00;97692.91;7398289;19;20361;-63
2023/03/09 01:49:30;;;;;;;3.05;0.88;;;;;;;7.25;100.00;97687.09;7392799;19;20017;-63
2023/03/09 01:52:10;;;;;;;0.40;0.40;;;;;;;6.75;100.00;97690.66;7397085;19;20014;-62
2023/03/09 01:54:43;;;;;;;5.10;0.95;;;;;;;7.50;100.00;97689.56;7394117;19;20460;-62
2023/03/09 01:57:13;;;;;;;3.65;2.45;;;;;;;6.65;100.00;97694.16;7392542;19;20027;-63
2023/03/09 01:59:41;;;;;;;0.77;0.77;;;;;;;7.10;100.00;97695.69;7396115;19;20011;-63
2023/03/09 02:02:08;;;;;;;6.25;2.03;;;;;;;7.54;100.00;97698.38;7396412;19;20035;-63
2023/03/09 02:04:47;;;;;;;1.95;1.20;;;;;;;7.58;100.00;97687.78;7392585;19;20011;-62
2023/03/09 02:07:18;;;;;;;1.10;0.70;;;;;;;7.62;100.00;97699.34;7392612;19;20085;-63
2023/03/09 02:09:52;;;;;;;1.55;1.33;;;;;;;7.59;100.00;97703.16;7395861;19;20010;-63
2023/03/09 02:12:21;;;;;;;2.92;0.95;;;;;;;7.58;100.00;97701.63;7397072;19;20364;-63
2023/03/09 02:14:48;;;;;;;1.05;0.85;;;;;;;7.57;100.00;97716.75;7396808;19;20017;-63
2023/03/09 02:17:16;;;;;;;1.02;1.02;;;;;;;7.47;100.00;97718.28;7391115;19;20014;-62
2023/03/09 02:20:22;;;;;;;1.70;0.95;;;;;;;7.71;100.00;97714.22;7391512;19;20460;-63
2023/03/09 02:22:49;;;;;;;1.15;1.15;;;;;;;7.82;100.00;97714.19;7392247;19;20460;-63
2023/03/09 02:25:37;;;;;;;2.40;1.25;;;;;;;7.85;100.00;97711.13;7393013;19;20074;-63
2023/03/09 02:28:06;;;;;;;5.35;1.60;;;;;;;7.84;100.00;97711.66;7394283;19;20082;-62
2023/03/09 02:30:36;;;;;;;2.63;1.65;;;;;;;7.81;100.00;97718.97;7394033;19;20006;-62
2023/03/09 02:33:09;;;;;;;3.45;1.00;;;;;;;7.78;100.00;97708.88;7392567;19;20006;-63
2023/03/09 02:35:37;;;;;;;6.53;1.60;;;;;;;6.92;100.00;97715.56;7393535;19;20014;-63
2023/03/09 02:38:11;;;;;;;0.63;0.63;;;;;;;6.89;100.00;97713.78;7393387;19;20022;-63
2023/03/09 02:40:38;;;;;;;7.93;1.58;;;;;;;7.37;100.00;97714.28;7390420;19;20091;-62
2023/03/09 02:43:08;;;;;;;2.00;1.25;;;;;;;7.62;100.00;97718.75;7390647;19;20023;-62
2023/03/09 02:45:35;;;;;;;3.55;1.48;;;;;;;7.71;100.00;97711.44;7391053;19;20019;-63
2023/03/09 02:48:03;;;;;;;0.82;0.63;;;;;;;7.50;100.00;97720.03;7391523;19;20036;-63
2023/03/09 02:50:29;;;;;;;5.05;1.38;;;;;;;7.17;100.00;97728.38;7391738;19;20023;-62
2023/03/09 02:52:55;;;;;;;1.52;0.55;;;;;;;7.65;100.00;97734.34;7391002;19;20047;-62
2023/03/09 02:55:22;;;;;;;2.65;1.75;;;;;;;7.95;100.00;97722.69;7390177;19;20364;-63
2023/03/09 02:57:48;;;;;;;3.53;1.90;;;;;;;8.05;100.00;97719.13;7391770;19;20015;-63
2023/03/09 03:00:21;;;;;;;1.80;1.20;;;;;;;11.52;100.00;97706.75;7390135;19;20030;-63
2023/03/09 03:02:47;;;;;;;1.23;1.15;;;;;;;14.48;72.15;97689.59;7390689;19;20015;-63
2023/03/09 03:05:13;;;;;;;1.95;0.98;;;;;;;13.44;81.67;97691.19;7390630;19;20363;-62
2023/03/09 03:07:41;;;;;;;1.80;1.73;;;;;;;14.36;66.69;97680.00;7392388;19;20011;-63
2023/03/09 03:10:10;;;;;;;0.77;0.77;;;;;;;16.48;67.50;97689.22;7391557;19;20022;-63
2023/03/09 03:12:36;;;;;;;1.52;0.98;;;;;;;12.88;72.27;97692.56;7391896;19;20024;-63
2023/03/09 03:15:05;;;;;;;1.92;1.13;;;;;;;10.61;75.81;97691.25;7396849;19;20010;-62
2023/03/09 03:17:31;;;;;;;1.15;1.10;;;;;;;9.03;96.17;97696.84;7388292;19;20359;-63
2023/03/09 03:19:58;;;;;;;1.00;1.00;;;;;;;8.65;100.00;97697.91;7385797;19;20015;-63
2023/03/09 03:22:24;;;;;;;0.43;0.43;;;;;;;8.46;100.00;97705.34;7391075;19;21063;-63
2023/03/09 03:24:51;;;;;;;2.17;1.48;;;;;;;8.32;100.00;97709.19;7389433;19;20023;-62
2023/03/09 03:27:17;;;;;;;2.28;0.98;;;;;;;8.28;100.00;97714.25;7391516;19;20333;-62
2023/03/09 03:29:45;;;;;;;1.00;1.00;;;;;;;8.10;100.00;97720.38;7395061;19;20467;-62
2023/03/09 03:32:12;;;;;;;1.55;1.45;;;;;;;8.04;100.00;97723.16;7393869;19;20015;-63
2023/03/09 03:34:38;;;;;;;1.75;1.65;;;;;;;7.96;100.00;97729.72;7392324;19;20465;-62
2023/03/09 03:37:05;;;;;;;0.82;0.82;;;;;;;7.99;100.00;97734.28;7392898;19;20399;-62
2023/03/09 03:39:33;;;;;;;0.25;0.25;;;;;;;7.92;100.00;97729.25;7389963;19;20036;-63
2023/03/09 03:42:03;;;;;;;0.90;0.65;;;;;;;7.88;100.00;97723.22;7394081;19;20365;-63
2023/03/09 03:44:29;;;;;;;1.83;1.70;;;;;;;7.91;100.00;97722.94;7390235;19;20015;-63
2023/03/09 03:46:55;;;;;;;1.55;1.35;;;;;;;7.93;100.00;97728.72;7389846;19;20033;-63
2023/03/09 03:49:22;;;;;;;1.05;0.82;;;;;;;7.87;100.00;97725.22;7390754;19;20011;-62
2023/03/09 03:51:48;;;;;;;3.47;1.33;;;;;;;7.82;100.00;97722.50;7393973;19;20015;-62
2023/03/09 03:54:15;;;;;;;0.55;0.55;;;;;;;7.81;100.00;97707.13;7396877;19;20096;-62
2023/03/09 03:56:42;;;;;;;0.60;0.52;;;;;;;7.80;100.00;97700.06;7397796;19;20011;-62
2023/03/09 03:59:12;;;;;;;0.80;0.80;;;;;;;7.90;100.00;97720.69;7399578;19;20022;-62
2023/03/09 04:01:38;;;;;;;0.68;0.68;;;;;;;7.92;100.00;97723.69;7400085;19;20021;-62
2023/03/09 04:04:07;;;;;;;0.63;0.63;;;;;;;7.98;100.00;97725.19;7398370;19;20010;-62
2023/03/09 04:06:38;;;;;;;3.50;1.75;;;;;;;7.95;100.00;97725.47;7397239;19;20007;-63
2023/03/09 04:09:04;;;;;;;1.10;1.02;;;;;;;7.89;100.00;97719.16;7396553;19;20006;-63
2023/03/09 04:11:32;;;;;;;2.53;0.98;;;;;;;7.76;100.00;97728.03;7399596;19;20011;-62
2023/03/09 04:13:59;;;;;;;1.20;1.20;;;;;;;7.81;100.00;97729.28;7398358;19;20014;-62
2023/03/09 04:16:25;;;;;;;4.90;0.95;;;;;;;7.72;100.00;97726.78;7396483;19;20573;-62
2023/03/09 04:18:52;;;;;;;2.05;1.23;;;;;;;7.58;100.00;97734.88;7395368;19;20506;-63
2023/03/09 04:21:20;;;;;;;1.13;1.13;;;;;;;7.99;100.00;97723.91;7401339;19;20082;-63
2023/03/09 04:23:48;;;;;;;4.15;2.63;;;;;;;7.78;100.00;97730.28;7397019;19;20357;-63
2023/03/09 04:26:14;;;;;;;0.52;0.50;;;;;;;7.75;100.00;97731.31;7398233;19;20015;-62
2023/03/09 04:28:59;;;;;;;2.08;1.02;;;;;;;7.51;100.00;97732.59;7399754;19;20018;-62
2023/03/09 04:31:26;;;;;;;0.70;0.70;;;;;;;7.73;100.00;97734.59;7399122;19;20086;-62
2023/03/09 04:33:52;;;;;;;0.43;0.43;;;;;;;7.82;100.00;97733.56;7394732;19;20040;-62
2023/03/09 04:36:20;;;;;;;1.23;1.13;;;;;;;7.70;100.00;97743.16;7394116;19;20074;-63
2023/03/09 04:38:48;;;;;;;3.13;1.35;;;;;;;7.76;100.00;97741.13;7396752;19;20027;-63
2023/03/09 04:41:16;;;;;;;0.90;0.90;;;;;;;7.88;100.00;97737.84;7397570;19;20010;-63
2023/03/09 04:43:46;;;;;;;0.90;0.88;;;;;;;7.91;100.00;97749.91;7396688;19;20010;-62
2023/03/09 04:46:13;;;;;;;0.40;0.40;;;;;;;7.95;100.00;97744.88;7397290;19;20014;-63
2023/03/09 04:48:39;;;;;;;0.95;0.95;;;;;;;7.97;100.00;97756.94;7395127;19;20036;-63
2023/03/09 04:51:05;;;;;;;1.85;0.90;;;;;;;7.98;100.00;97743.84;7398612;19;20015;-62
2023/03/09 04:53:32;;;;;;;3.13;1.58;;;;;;;8.01;100.00;97740.06;7394483;19;20010;-63
2023/03/09 04:55:59;;;;;;;0.25;0.25;;;;;;;8.16;100.00;97737.72;7395574;19;20562;-62
2023/03/09 04:58:26;;;;;;;2.65;0.80;;;;;;;9.63;100.00;97735.69;7397447;19;20084;-62
2023/03/09 05:00:53;;;;;;;1.92;1.00;;;;;;;14.54;84.10;97721.00;7394324;19;20035;-62
2023/03/09 05:03:21;;;;;;;0.68;0.68;;;;;;;10.33;86.83;97734.69;7395915;19;20452;-62
2023/03/09 05:05:52;;;;;;;2.17;0.40;;;;;;;8.34;100.00;97734.38;7394872;19;20348;-62
2023/03/09 05:08:21;;;;;;;0.75;0.75;;;;;;;8.22;100.00;97735.69;7395848;19;20030;-62
2023/03/09 05:10:48;;;;;;;1.27;0.85;;;;;;;16.19;82.41;97716.81;7396298;19;20022;-63
2023/03/09 05:13:16;;;;;;;0.63;0.63;;;;;;;10.51;78.18;97722.78;7394648;19;20010;-62
2023/03/09 05:15:43;;;;;;;3.03;1.30;;;;;;;8.54;100.00;97722.94;7395155;19;20078;-62
2023/03/09 05:18:11;;;;;;;2.28;1.27;;;;;;;8.16;100.00;97726.63;7394784;19;20039;-63
2023/03/09 05:20:38;;;;;;;0.63;0.40;;;;;;;8.09;100.00;97716.84;7393448;19;20036;-63
2023/03/09 05:23:05;;;;;;;3.05;2.05;;;;;;;8.03;100.00;97727.19;7393594;19;20041;-63
2023/03/09 05:25:31;;;;;;;1.75;1.17;;;;;;;8.00;100.00;97725.44;7393951;19;20014;-62
2023/03/09 05:27:59;;;;;;;0.63;0.63;;;;;;;7.96;100.00;97719.41;7394411;19;20023;-62
2023/03/09 05:30:29;;;;;;;2.00;1.13;;;;;;;7.88;100.00;97717.69;7394331;19;20006;-62
2023/03/09 05:32:56;;;;;;;1.38;1.00;;;;;;;7.91;100.00;97730.50;7393364;19;20025;-62
2023/03/09 05:35:24;;;;;;;1.65;0.95;;;;;;;7.91;100.00;97725.72;7393646;19;20011;-62
2023/03/09 05:37:51;;;;;;;1.83;0.73;;;;;;;7.95;100.00;97717.88;7393765;19;20006;-62
2023/03/09 05:40:21;;;;;;;2.10;1.52;;;;;;;7.87;100.00;97703.06;7393461;19;20011;-62
2023/03/09 05:42:48;;;;;;;2.72;1.25;;;;;;;7.85;100.00;97713.91;7393250;19;20042;-62
2023/03/09 05:45:15;;;;;;;0.98;0.93;;;;;;;7.87;100.00;97711.38;7393249;19;20091;-62
2023/03/09 05:47:41;;;;;;;0.50;0.50;;;;;;;7.91;100.00;97711.09;7398526;19;20022;-62
2023/03/09 05:50:08;;;;;;;0.50;0.50;;;;;;;7.87;100.00;97711.38;7394310;19;20365;-62
2023/03/09 05:52:34;;;;;;;0.43;0.43;;;;;;;7.91;100.00;97714.63;7393365;19;20463;-62
2023/03/09 05:55:01;;;;;;;1.08;1.08;;;;;;;7.92;100.00;97718.16;7392963;19;20006;-62
2023/03/09 05:57:29;;;;;;;0.70;0.70;;;;;;;7.91;100.00;97711.09;7392478;19;20006;-62
2023/03/09 05:59:55;;;;;;;0.70;0.70;;;;;;;7.90;100.00;97699.28;7394767;19;20100;-62
2023/03/09 06:02:21;;;;;;;3.78;0.82;;;;;;;7.87;100.00;97694.75;7397550;19;20030;-61
2023/03/09 06:04:52;;;;;;;0.75;0.75;;;;;;;7.83;100.00;97694.25;7393763;19;20011;-62
2023/03/09 06:07:19;;;;;;;;;;;;;;;7.83;100.00;97702.56;7393267;19;20006;-62
2023/03/09 06:09:48;;;;;;;0.82;0.57;;;;;;;7.75;100.00;97701.59;7392842;19;20011;-62
2023/03/09 06:12:20;;;;;;;0.28;0.28;;;;;;;7.74;100.00;97713.16;7396852;19;20078;-62
2023/03/09 06:14:51;;;;;;;1.30;0.95;;;;;;;7.71;100.00;97714.94;7396018;19;20018;-61
2023/03/09 06:17:19;;;;;;;1.15;1.08;;;;;;;7.68;100.00;97712.44;7392678;19;20014;-62
2023/03/09 06:19:45;;;;;;;2.40;1.05;;;;;;;7.69;100.00;97719.50;7391521;19;20011;-62
2023/03/09 06:22:11;;;;;;;0.40;0.40;;;;;;;7.72;100.00;97710.91;7396673;19;20006;-63
2023/03/09 06:24:40;;;;;;;2.83;0.73;;;;;;;7.73;100.00;97708.91;7391838;19;20011;-63
2023/03/09 06:27:07;;;;;;;1.27;0.98;;;;;;;7.70;100.00;97704.38;7392633;19;20460;-63
2023/03/09 06:29:36;;;;;;;0.55;0.55;;;;;;;8.07;100.00;97704.75;7396906;19;20011;-62
2023/03/09 06:32:03;;;;;;;1.35;1.13;;;;;;;7.80;100.00;97705.59;7396542;19;20011;-62
2023/03/09 06:34:31;;;;;;;1.10;0.80;;;;;;;7.73;100.00;97706.13;7392026;19;20026;-62
2023/03/09 06:37:01;;;;;;;0.80;0.80;;;;;;;7.71;100.00;97708.66;7391400;19;20031;-63
2023/03/09 06:39:28;;;;;;;0.30;0.30;;;;;;;7.69;100.00;97702.88;7391580;19;20010;-63
2023/03/09 06:41:55;;;;;;;1.25;1.23;;;;;;;12.21;100.00;97697.34;7395446;19;20010;-62
2023/03/09 06:44:29;;;;;;;2.58;0.85;;;;;;;15.37;66.74;97698.75;7392640;19;20014;-63
2023/03/09 06:46:56;;;;;;;0.50;0.50;;;;;;;11.29;92.69;97705.66;7391856;19;20010;-63
2023/03/09 06:49:24;;;;;;;2.33;0.85;;;;;;;12.56;89.58;97708.03;7391567;19;20014;-63
2023/03/09 06:51:52;;;;;;;3.85;0.93;;;;;;;19.49;63.26;97688.28;7394499;19;20460;-63
2023/03/09 06:54:19;;;;;;;0.85;0.63;;;;;;;20.48;54.04;97687.28;7395631;19;20037;-63
2023/03/09 06:56:53;;;;;;;3.45;1.27;;;;;;;20.99;46.57;97694.50;7390673;19;20120;-62
2023/03/09 06:59:20;;;;;;;0.88;0.85;;;;;;;21.25;43.47;97695.63;7395069;19;20030;-62
2023/03/09 07:01:46;;;;;;;2.40;1.10;;;;;;;19.04;44.73;97699.50;7393310;19;20440;-63
2023/03/09 07:04:13;;;;;;;0.20;0.20;;;;;;;22.98;41.44;97695.97;7397558;19;20460;-63
2023/03/09 07:06:40;;;;;;;2.75;0.95;;;;;;;16.56;47.07;97713.19;7393829;19;20011;-62
2023/03/09 07:09:08;;;;;;;0.50;0.50;;;;;;;17.96;53.06;97706.22;7391721;19;20010;-62
2023/03/09 07:11:34;;;;;;;1.48;1.38;;;;;;;22.77;41.41;97698.88;7394515;19;20013;-63
2023/03/09 07:14:00;;;;;;;0.73;0.73;;;;;;;23.40;38.94;97695.09;7394776;19;20052;-64
2023/03/09 07:16:27;;;;;;;0.88;0.77;;;;;;;22.94;38.49;97695.72;7391380;19;20010;-64
2023/03/09 07:18:54;;;;;;;0.68;0.68;;;;;;;23.29;38.06;97702.22;7393700;19;20415;-64
2023/03/09 07:21:20;;;;;;;1.23;1.00;;;;;;;23.27;37.27;97704.94;7393984;19;20015;-63
2023/03/09 07:23:47;;;;;;;0.40;0.40;;;;;;;23.73;36.99;97704.25;7392592;19;20086;-64
2023/03/09 07:26:13;;;;;;;0.70;0.70;;;;;;;23.83;36.19;97697.06;7393341;19;20010;-63
2023/03/09 07:28:39;;;;;;;4.43;1.50;;;;;;;23.70;35.47;97706.22;7395406;19;20007;-63
2023/03/09 07:31:13;;;;;;;4.85;0.77;;;;;;;23.64;35.51;97696.59;7401543;19;20014;-63
2023/03/09 07:33:39;;;;;;;0.55;0.55;;;;;;;22.99;36.14;97703.16;7399912;19;20017;-62
2023/03/09 07:36:07;;;;;;;0.47;0.47;;;;;;;20.00;38.02;97711.91;7399526;19;20348;-63
2023/03/09 07:38:34;;;;;;;1.58;1.30;;;;;;;20.02;38.45;97714.88;7399911;19;20459;-63
2023/03/09 07:41:01;;;;;;;0.73;0.73;;;;;;;19.17;39.70;97716.78;7398727;19;20011;-62
2023/03/09 07:43:27;;;;;;;0.73;0.73;;;;;;;20.17;38.75;97712.53;7399356;19;20070;-63
2023/03/09 07:46:07;;;;;;;0.40;0.40;;;;;;;17.75;42.38;97720.69;7397985;19;20010;-63
2023/03/09 07:48:34;;;;;;;0.73;0.73;;;;;;;22.16;37.08;97711.91;7399534;19;20014;-62
2023/03/09 07:51:00;;;;;;;0.50;0.50;;;;;;;22.75;36.22;97690.25;7397447;19;20006;-63
2023/03/09 07:53:30;;;;;;;1.35;1.25;;;;;;;23.59;34.75;97692.75;7401774;19;20039;-63
2023/03/09 07:55:57;;;;;;;4.68;1.17;;;;;;;22.88;34.95;97684.75;7399319;19;20014;-62
2023/03/09 07:58:25;;;;;;;0.95;0.90;;;;;;;22.76;35.86;97694.56;7401687;19;20014;-62
2023/03/09 08:00:51;;;;;;;1.17;0.75;;;;;;;23.55;34.73;97683.25;7397156;19;20010;-62
2023/03/09 08:03:17;;;;;;;0.70;0.70;;;;;;;24.05;33.80;97677.78;7397824;19;20471;-63
2023/03/09 08:05:43;;;;;;;0.32;0.32;;;;;;;23.92;33.79;97675.56;7398517;19;20769;-63
2023/03/09 08:08:11;;;;;;;0.20;0.20;;;;;;;23.44;34.49;97673.34;7397394;19;20018;-63
2023/03/09 08:10:37;;;;;;;0.10;0.10;;;;;;;24.04;33.33;97665.66;7396942;19;20039;-63
2023/03/09 08:13:04;;;;;;;0.30;0.30;;;;;;;23.54;34.06;97659.03;7398187;19;20046;-63
2023/03/09 08:15:30;;;;;;;0.40;0.40;;;;;;;20.46;36.99;97663.75;7400247;19;20010;-63
2023/03/09 08:17:56;;;;;;;4.18;1.08;;;;;;;21.95;35.56;97658.03;7398314;19;20400;-63
2023/03/09 08:20:22;;;;;;;1.27;0.50;;;;;;;15.96;41.69;97674.00;7395668;19;20043;-62
2023/03/09 08:22:48;;;;;;;1.95;0.70;;;;;;;20.14;38.20;97662.13;7397481;19;20325;-63
2023/03/09 08:25:17;;;;;;;1.55;1.42;;;;;;;19.98;38.67;97663.72;7397886;19;20348;-63
2023/03/09 08:27:46;;;;;;;0.25;0.25;;;;;;;21.01;36.92;97667.06;7400645;19;20354;-62
2023/03/09 08:30:14;;;;;;;0.52;0.52;;;;;;;21.73;36.45;97665.75;7401295;19;20085;-62
2023/03/09 08:32:40;;;;;;;0.40;0.40;;;;;;;20.90;37.13;97667.69;7398128;19;20027;-63
2023/03/09 08:35:07;;;;;;;0.60;0.60;;;;;;;22.82;35.20;97680.78;7400592;19;20014;-63
2023/03/09 08:37:33;;;;;;;0.40;0.40;;;;;;;20.43;37.02;97671.34;7396126;19;20018;-63
2023/03/09 08:39:59;;;;;;;2.08;1.75;;;;;;;21.11;37.03;97681.97;7392842;19;20013;-62
2023/03/09 08:42:25;;;;;;;0.80;0.80;;;;;;;21.20;36.53;97671.97;7399721;19;20006;-62
2023/03/09 08:44:51;;;;;;;1.45;0.70;;;;;;;20.62;38.08;97679.09;7395854;19;20019;-63
2023/03/09 08:47:18;;;;;;;6.88;1.10;;;;;;;21.29;36.98;97673.28;7396189;19;20030;-63
2023/03/09 08:49:47;;;;;;;16.38;2.17;;;;;;;21.07;37.23;97669.63;7395000;19;20022;-63
2023/03/09 08:52:13;;;;;;;1.73;1.10;;;;;;;18.98;38.29;97668.75;7400968;19;20022;-62
2023/03/09 08:54:39;;;;;;;0.63;0.63;;;;;;;19.20;40.64;97658.44;7396888;19;20078;-63
2023/03/09 08:57:06;;;;;;;0.32;0.32;;;;;;;18.70;40.08;97663.69;7396871;19;20081;-63
2023/03/09 08:59:32;;;;;;;1.58;1.38;;;;;;;20.11;39.12;97658.38;7400037;19;20014;-63
2023/03/09 09:01:58;;;;;;;0.55;0.52;;;;;;;20.90;37.78;97662.03;7400680;19;20012;-62
2023/03/09 09:04:25;;;;;;;1.00;0.65;;;;;;;21.27;37.64;97661.81;7392812;19;20479;-63
2023/03/09 09:06:51;;;;;;;0.40;0.40;;;;;;;20.71;37.96;97667.00;7398430;19;20014;-62
2023/03/09 09:09:17;;;;;;;0.30;0.30;;;;;;;20.85;37.50;97677.25;7390670;19;20021;-63
2023/03/09 09:11:43;;;;;;;1.20;1.00;;;;;;;20.99;37.59;97671.84;7394626;19;20070;-63
2023/03/09 09:14:10;;;;;;;0.52;0.52;;;;;;;20.89;37.25;97677.56;7397529;19;20468;-63
2023/03/09 09:16:36;;;;;;;1.98;1.23;;;;;;;20.45;38.12;97674.31;7396141;19;20010;-64
2023/03/09 09:19:02;;;;;;;0.77;0.77;;;;;;;19.72;38.97;97675.88;7398160;19;20006;-64
2023/03/09 09:21:29;;;;;;;1.10;0.82;;;;;;;17.70;42.33;97682.25;7399338;19;20014;-64
2023/03/09 09:23:55;;;;;;;0.88;0.88;;;;;;;11.44;52.93;97689.91;7395888;19;20007;-64
2023/03/09 09:26:21;;;;;;;0.60;0.60;;;;;;;13.74;50.80;97679.47;7394169;19;20012;-63
2023/03/09 09:28:47;;;;;;;0.40;0.40;;;;;;;17.99;43.20;97676.91;7398198;19;20027;-63
2023/03/09 09:31:19;;;;;;;0.68;0.45;;;;;;;18.27;43.44;97667.94;7397584;19;20029;-64
2023/03/09 09:33:47;;;;;;;0.30;0.30;;;;;;;19.16;41.05;97666.59;7394751;19;20007;-64
2023/03/09 09:36:16;;;;;;;1.05;0.75;;;;;;;13.30;47.75;97673.00;7400116;19;20040;-64
2023/03/09 09:38:43;;;;;;;0.35;0.35;;;;;;;19.30;42.38;97657.13;7396037;19;20018;-64
2023/03/09 09:41:30;;;;;;;0.75;0.75;;;;;;;20.03;40.74;97663.41;7395637;19;20011;-64
2023/03/09 09:44:01;;;;;;;1.45;0.75;;;;;;;20.12;39.71;97647.84;7399974;19;20096;-64
2023/03/09 09:46:31;;;;;;;0.43;0.35;;;;;;;15.04;44.61;97661.34;7395009;19;20023;-62
2023/03/09 09:49:00;;;;;;;0.75;0.40;;;;;;;19.14;41.96;97655.16;7395970;19;20084;-63
2023/03/09 09:51:32;;;;;;;0.73;0.63;;;;;;;19.36;41.09;97646.34;7397106;19;20014;-62
2023/03/09 09:54:14;;;;;;;2.28;0.60;;;;;;;18.88;42.29;97642.56;7395612;19;20010;-65
2023/03/09 09:56:40;;;;;;;0.70;0.70;;;;;;;16.34;47.05;97651.44;7397334;19;20387;-64
2023/03/09 09:59:13;;;;;;;1.02;1.00;;;;;;;18.00;44.06;97634.06;7396415;19;20399;-64
2023/03/09 10:01:51;;;;;;;0.50;0.50;;;;;;;18.46;43.78;97634.28;7397533;19;20014;-64
2023/03/09 10:04:26;;;;;;;1.05;1.00;;;;;;;18.64;43.92;97644.22;7394524;19;20102;-63
2023/03/09 10:06:56;;;;;;;0.43;0.43;;;;;;;19.09;42.45;97634.34;7392898;19;20338;-64
2023/03/09 10:09:29;;;;;;;0.73;0.73;;;;;;;17.85;43.81;97627.84;7393386;19;20074;-64
2023/03/09 10:12:02;;;;;;;0.93;0.93;;;;;;;14.90;48.85;97637.56;7396509;19;20015;-64
2023/03/09 10:14:42;;;;;;;2.20;0.73;;;;;;;18.55;44.47;97618.78;7397228;19;20022;-64
2023/03/09 10:17:18;;;;;;;1.15;1.00;;;;;;;18.68;43.48;97616.34;7393103;19;20455;-65
2023/03/09 10:19:48;;;;;;;0.43;0.43;;;;;;;18.61;43.57;97622.06;7391911;19;20009;-64
2023/03/09 10:22:17;;;;;;;4.00;2.30;;;;;;;17.77;44.83;97613.88;7391737;19;20347;-65
2023/03/09 10:24:50;;;;;;;0.40;0.40;;;;;;;14.13;49.65;97609.16;7389991;19;20655;-64
2023/03/09 10:27:19;;;;;;;1.45;0.75;;;;;;;12.10;54.50;97625.81;7393555;19;20123;-65
2023/03/09 10:30:01;;;;;;;0.80;0.80;;;;;;;18.02;48.24;97599.69;7398372;19;20464;-66
2023/03/09 10:32:39;;;;;;;0.38;0.38;;;;;;;16.50;49.28;97608.66;7390295;19;20014;-66
2023/03/09 10:35:18;;;;;;;0.82;0.82;;;;;;;17.73;46.66;97588.19;7391925;19;20483;-66
2023/03/09 10:37:46;;;;;;;0.82;0.82;;;;;;;13.14;51.84;97602.28;7396169;19;20375;-70
2023/03/09 10:40:26;;;;;;;0.85;0.55;;;;;;;17.59;48.52;97595.47;7391008;19;20340;-71
2023/03/09 10:42:52;;;;;;;16.08;3.30;;;;;;;21.00;42.49;97596.94;7394252;19;20010;-69
2023/03/09 10:45:32;;;;;;;2.03;0.63;;;;;;;21.83;40.20;97606.94;7394382;19;20077;-67
2023/03/09 10:48:07;;;;;;;0.70;0.70;;;;;;;21.85;39.43;97614.84;7394017;19;20014;-68
2023/03/09 10:50:53;;;;;;;1.70;0.50;;;;;;;21.78;38.79;97618.59;7394191;19;20014;-68
2023/03/09 10:53:48;;;;;;;1.02;0.68;;;;;;;21.56;39.25;97605.75;7393002;19;20007;-68
2023/03/09 10:56:26;;;;;;;3.28;1.58;;;;;;;17.93;41.51;97612.34;7392359;19;20010;-67
2023/03/09 10:59:08;;;;;;;6.07;1.23;;;;;;;13.82;51.47;97613.16;7396558;19;20385;-68
2023/03/09 11:01:40;;;;;;;5.32;1.50;;;;;;;19.55;42.62;97604.06;7393396;19;20023;-67
2023/03/09 11:04:32;;;;;;;1.25;1.10;;;;;;;19.19;41.59;97592.78;7390495;19;20023;-67
2023/03/09 11:07:00;;;;;;;0.43;0.43;;;;;;;19.55;42.03;97584.31;7392588;19;20460;-68
2023/03/09 11:09:42;;;;;;;1.70;0.95;;;;;;;21.34;39.88;97573.09;7393097;19;20019;-68
2023/03/09 11:12:17;;;;;;;0.28;0.28;;;;;;;21.57;39.00;97578.94;7397089;19;20025;-66
2023/03/09 11:14:58;;;;;;;0.90;0.50;;;;;;;20.37;40.44;97584.03;7395314;19;20011;-66
2023/03/09 11:17:27;;;;;;;0.60;0.60;;;;;;;21.23;39.26;97590.75;7396334;19;20114;-66
2023/03/09 11:20:12;;;;;;;0.60;0.60;;;;;;;20.72;39.50;97590.03;7390467;19;20060;-66
2023/03/09 11:22:45;;;;;;;2.05;0.90;;;;;;;20.07;39.95;97586.69;7392962;19;20017;-66
2023/03/09 11:25:21;;;;;;;0.50;0.50;;;;;;;22.18;38.30;97572.34;7392398;19;20014;-66
2023/03/09 11:27:58;;;;;;;0.50;0.50;;;;;;;22.56;37.65;97572.72;7393043;19;20015;-66
2023/03/09 11:30:27;;;;;;;1.40;0.75;;;;;;;22.55;37.48;97568.41;7392162;19;20388;-67
2023/03/09 11:32:53;;;;;;;0.90;0.90;;;;;;;21.94;38.09;97571.50;7392678;19;20010;-66
2023/03/09 11:35:22;;;;;;;0.65;0.65;;;;;;;22.17;37.03;97571.63;7390712;19;20085;-65
2023/03/09 11:38:20;;;;;;;3.20;0.70;;;;;;;22.14;37.14;97567.16;7392049;19;20078;-65
2023/03/09 11:41:28;;;;;;;9.32;1.80;;;;;;;22.24;37.47;97564.25;7391838;19;20011;-65
2023/03/09 11:44:01;;;;;;;0.52;0.52;;;;;;;22.52;36.81;97552.59;7390459;19;20017;-64